Sign in

Links

Info

Aviation weather - KDAB

METAR KDAB 220853Z 32004KT 10SM SCT031 24/22 A2993 RMK AO2 SLP135 T02390222 56008

TAF KDAB 220542Z 2206/2306 06005KT P6SM FEW030 FM221200 04006KT P6SM VCSH SCT025 SCT060 FM221600 05011G16KT P6SM VCSH SCT030 BKN060 FM230000 06007KT P6SM VCSH BKN035 BKN060

Aviation weather from ADDS. Re-check weather before flight.

-